sensor_id;sensor_type;location;lat;lon;timestamp;P1;durP1;ratioP1;P2;durP2;ratioP2
5393;SDS011;2720;52.396;10.064;2023-05-31T00:02:23;11.60;;;4.30;;
5393;SDS011;2720;52.396;10.064;2023-05-31T00:04:51;12.13;;;4.73;;
5393;SDS011;2720;52.396;10.064;2023-05-31T00:07:18;10.53;;;4.13;;
5393;SDS011;2720;52.396;10.064;2023-05-31T00:09:45;9.80;;;4.60;;
5393;SDS011;2720;52.396;10.064;2023-05-31T00:12:12;8.07;;;4.67;;
5393;SDS011;2720;52.396;10.064;2023-05-31T00:14:40;8.83;;;4.70;;
5393;SDS011;2720;52.396;10.064;2023-05-31T00:17:07;12.03;;;4.67;;
5393;SDS011;2720;52.396;10.064;2023-05-31T00:19:34;8.67;;;3.47;;
5393;SDS011;2720;52.396;10.064;2023-05-31T00:22:01;12.13;;;3.67;;
5393;SDS011;2720;52.396;10.064;2023-05-31T00:24:28;8.10;;;3.80;;
5393;SDS011;2720;52.396;10.064;2023-05-31T00:26:55;7.80;;;5.03;;
5393;SDS011;2720;52.396;10.064;2023-05-31T00:29:22;10.17;;;4.50;;
5393;SDS011;2720;52.396;10.064;2023-05-31T00:31:52;8.63;;;3.70;;
5393;SDS011;2720;52.396;10.064;2023-05-31T00:34:19;8.30;;;4.00;;
5393;SDS011;2720;52.396;10.064;2023-05-31T00:36:46;12.03;;;4.53;;
5393;SDS011;2720;52.396;10.064;2023-05-31T00:39:13;10.13;;;4.27;;
5393;SDS011;2720;52.396;10.064;2023-05-31T00:41:40;8.07;;;4.20;;
5393;SDS011;2720;52.396;10.064;2023-05-31T00:44:07;11.20;;;4.77;;
5393;SDS011;2720;52.396;10.064;2023-05-31T00:46:34;11.50;;;4.83;;
5393;SDS011;2720;52.396;10.064;2023-05-31T00:49:05;9.40;;;4.07;;
5393;SDS011;2720;52.396;10.064;2023-05-31T00:51:33;11.00;;;5.40;;
5393;SDS011;2720;52.396;10.064;2023-05-31T00:54:01;8.17;;;4.33;;
5393;SDS011;2720;52.396;10.064;2023-05-31T00:56:28;15.80;;;5.17;;
5393;SDS011;2720;52.396;10.064;2023-05-31T00:58:56;10.53;;;4.23;;
5393;SDS011;2720;52.396;10.064;2023-05-31T01:01:23;11.23;;;4.43;;
5393;SDS011;2720;52.396;10.064;2023-05-31T01:03:52;13.30;;;4.80;;
5393;SDS011;2720;52.396;10.064;2023-05-31T01:06:21;9.70;;;5.20;;
5393;SDS011;2720;52.396;10.064;2023-05-31T01:08:48;14.50;;;5.93;;
5393;SDS011;2720;52.396;10.064;2023-05-31T01:11:17;16.33;;;5.90;;
5393;SDS011;2720;52.396;10.064;2023-05-31T01:13:52;8.93;;;4.43;;
5393;SDS011;2720;52.396;10.064;2023-05-31T01:16:28;11.73;;;5.20;;
5393;SDS011;2720;52.396;10.064;2023-05-31T01:19:03;7.70;;;4.20;;
5393;SDS011;2720;52.396;10.064;2023-05-31T01:21:42;10.90;;;5.40;;
5393;SDS011;2720;52.396;10.064;2023-05-31T01:24:25;10.77;;;5.47;;
5393;SDS011;2720;52.396;10.064;2023-05-31T01:27:03;12.27;;;5.87;;
5393;SDS011;2720;52.396;10.064;2023-05-31T01:29:32;9.17;;;5.47;;
5393;SDS011;2720;52.396;10.064;2023-05-31T01:32:01;13.60;;;5.37;;
5393;SDS011;2720;52.396;10.064;2023-05-31T01:34:30;8.33;;;4.93;;
5393;SDS011;2720;52.396;10.064;2023-05-31T01:36:57;8.90;;;4.67;;
5393;SDS011;2720;52.396;10.064;2023-05-31T01:39:23;9.50;;;5.33;;
5393;SDS011;2720;52.396;10.064;2023-05-31T01:41:51;14.90;;;4.83;;
5393;SDS011;2720;52.396;10.064;2023-05-31T01:44:20;12.57;;;5.20;;
5393;SDS011;2720;52.396;10.064;2023-05-31T01:46:47;12.87;;;5.63;;
5393;SDS011;2720;52.396;10.064;2023-05-31T01:49:15;12.43;;;5.23;;
5393;SDS011;2720;52.396;10.064;2023-05-31T01:51:43;9.60;;;5.43;;
5393;SDS011;2720;52.396;10.064;2023-05-31T01:54:12;15.50;;;6.20;;
5393;SDS011;2720;52.396;10.064;2023-05-31T01:56:39;14.90;;;5.67;;
5393;SDS011;2720;52.396;10.064;2023-05-31T01:59:08;13.77;;;5.10;;
5393;SDS011;2720;52.396;10.064;2023-05-31T02:01:37;16.43;;;6.60;;
5393;SDS011;2720;52.396;10.064;2023-05-31T02:04:05;19.40;;;6.50;;
5393;SDS011;2720;52.396;10.064;2023-05-31T02:06:34;20.00;;;6.20;;
5393;SDS011;2720;52.396;10.064;2023-05-31T02:09:02;15.43;;;6.63;;
5393;SDS011;2720;52.396;10.064;2023-05-31T02:11:29;12.70;;;6.70;;
5393;SDS011;2720;52.396;10.064;2023-05-31T02:13:56;16.53;;;7.00;;
5393;SDS011;2720;52.396;10.064;2023-05-31T02:16:23;13.83;;;6.00;;
5393;SDS011;2720;52.396;10.064;2023-05-31T02:18:51;17.53;;;7.10;;
5393;SDS011;2720;52.396;10.064;2023-05-31T02:21:18;13.63;;;5.77;;
5393;SDS011;2720;52.396;10.064;2023-05-31T02:23:45;17.77;;;6.83;;
5393;SDS011;2720;52.396;10.064;2023-05-31T02:26:12;10.83;;;6.30;;
5393;SDS011;2720;52.396;10.064;2023-05-31T02:28:40;10.20;;;5.97;;
5393;SDS011;2720;52.396;10.064;2023-05-31T02:31:07;13.50;;;5.87;;
5393;SDS011;2720;52.396;10.064;2023-05-31T02:33:34;11.13;;;5.30;;
5393;SDS011;2720;52.396;10.064;2023-05-31T02:36:02;10.43;;;5.93;;
5393;SDS011;2720;52.396;10.064;2023-05-31T02:38:29;14.13;;;5.80;;
5393;SDS011;2720;52.396;10.064;2023-05-31T02:40:56;14.77;;;6.40;;
5393;SDS011;2720;52.396;10.064;2023-05-31T02:43:23;12.13;;;5.67;;
5393;SDS011;2720;52.396;10.064;2023-05-31T02:45:50;13.50;;;6.60;;
5393;SDS011;2720;52.396;10.064;2023-05-31T02:48:17;11.53;;;5.40;;
5393;SDS011;2720;52.396;10.064;2023-05-31T02:50:44;10.10;;;5.00;;
5393;SDS011;2720;52.396;10.064;2023-05-31T02:53:12;12.00;;;5.77;;
5393;SDS011;2720;52.396;10.064;2023-05-31T02:55:39;9.87;;;5.40;;
5393;SDS011;2720;52.396;10.064;2023-05-31T02:58:06;14.43;;;6.03;;
5393;SDS011;2720;52.396;10.064;2023-05-31T03:00:33;11.33;;;6.70;;
5393;SDS011;2720;52.396;10.064;2023-05-31T03:03:00;13.13;;;5.93;;
5393;SDS011;2720;52.396;10.064;2023-05-31T03:05:27;12.43;;;6.60;;
5393;SDS011;2720;52.396;10.064;2023-05-31T03:07:55;21.93;;;6.63;;
5393;SDS011;2720;52.396;10.064;2023-05-31T03:10:23;15.33;;;6.47;;
5393;SDS011;2720;52.396;10.064;2023-05-31T03:12:50;13.00;;;5.40;;
5393;SDS011;2720;52.396;10.064;2023-05-31T03:15:17;12.97;;;6.03;;
5393;SDS011;2720;52.396;10.064;2023-05-31T03:17:45;19.03;;;6.67;;
5393;SDS011;2720;52.396;10.064;2023-05-31T03:20:12;10.57;;;5.60;;
5393;SDS011;2720;52.396;10.064;2023-05-31T03:22:39;23.93;;;7.30;;
5393;SDS011;2720;52.396;10.064;2023-05-31T03:25:06;12.73;;;5.67;;
5393;SDS011;2720;52.396;10.064;2023-05-31T03:27:35;20.30;;;7.63;;
5393;SDS011;2720;52.396;10.064;2023-05-31T03:30:02;15.50;;;7.33;;
5393;SDS011;2720;52.396;10.064;2023-05-31T03:32:31;18.10;;;6.90;;
5393;SDS011;2720;52.396;10.064;2023-05-31T03:34:58;27.77;;;6.93;;
5393;SDS011;2720;52.396;10.064;2023-05-31T03:37:25;16.00;;;7.53;;
5393;SDS011;2720;52.396;10.064;2023-05-31T03:39:52;12.30;;;6.83;;
5393;SDS011;2720;52.396;10.064;2023-05-31T03:42:19;13.33;;;6.20;;
5393;SDS011;2720;52.396;10.064;2023-05-31T03:44:47;18.00;;;7.00;;
5393;SDS011;2720;52.396;10.064;2023-05-31T03:47:14;11.63;;;5.50;;
5393;SDS011;2720;52.396;10.064;2023-05-31T03:49:41;13.93;;;6.10;;
5393;SDS011;2720;52.396;10.064;2023-05-31T03:52:08;16.20;;;6.30;;
5393;SDS011;2720;52.396;10.064;2023-05-31T03:54:38;16.57;;;6.80;;
5393;SDS011;2720;52.396;10.064;2023-05-31T03:57:05;14.87;;;6.77;;
5393;SDS011;2720;52.396;10.064;2023-05-31T03:59:33;13.30;;;7.00;;
5393;SDS011;2720;52.396;10.064;2023-05-31T04:02:02;17.53;;;7.57;;
5393;SDS011;2720;52.396;10.064;2023-05-31T04:04:29;17.03;;;7.40;;
5393;SDS011;2720;52.396;10.064;2023-05-31T04:06:56;14.03;;;6.50;;
5393;SDS011;2720;52.396;10.064;2023-05-31T04:09:23;18.50;;;7.20;;
5393;SDS011;2720;52.396;10.064;2023-05-31T04:11:50;14.73;;;6.40;;
5393;SDS011;2720;52.396;10.064;2023-05-31T04:14:17;12.17;;;6.10;;
5393;SDS011;2720;52.396;10.064;2023-05-31T04:16:44;12.90;;;6.63;;
5393;SDS011;2720;52.396;10.064;2023-05-31T04:19:13;15.17;;;6.00;;
5393;SDS011;2720;52.396;10.064;2023-05-31T04:21:40;12.50;;;5.97;;
5393;SDS011;2720;52.396;10.064;2023-05-31T04:24:07;15.57;;;5.93;;
5393;SDS011;2720;52.396;10.064;2023-05-31T04:26:33;15.07;;;6.40;;
5393;SDS011;2720;52.396;10.064;2023-05-31T04:29:00;12.40;;;5.77;;
5393;SDS011;2720;52.396;10.064;2023-05-31T04:31:28;14.70;;;6.00;;
5393;SDS011;2720;52.396;10.064;2023-05-31T04:33:56;13.37;;;6.40;;
5393;SDS011;2720;52.396;10.064;2023-05-31T04:36:26;16.90;;;6.50;;
5393;SDS011;2720;52.396;10.064;2023-05-31T04:38:54;10.60;;;6.60;;
5393;SDS011;2720;52.396;10.064;2023-05-31T04:41:21;23.67;;;7.07;;
5393;SDS011;2720;52.396;10.064;2023-05-31T04:43:51;18.23;;;7.17;;
5393;SDS011;2720;52.396;10.064;2023-05-31T04:46:18;18.20;;;6.33;;
5393;SDS011;2720;52.396;10.064;2023-05-31T04:48:46;15.30;;;6.83;;
5393;SDS011;2720;52.396;10.064;2023-05-31T04:51:15;12.53;;;5.90;;
5393;SDS011;2720;52.396;10.064;2023-05-31T04:53:44;16.40;;;6.70;;
5393;SDS011;2720;52.396;10.064;2023-05-31T04:56:12;20.33;;;6.60;;
5393;SDS011;2720;52.396;10.064;2023-05-31T04:58:39;28.30;;;7.27;;
5393;SDS011;2720;52.396;10.064;2023-05-31T05:01:07;15.10;;;6.50;;
5393;SDS011;2720;52.396;10.064;2023-05-31T05:03:34;17.17;;;5.80;;
5393;SDS011;2720;52.396;10.064;2023-05-31T05:06:02;13.60;;;6.03;;
5393;SDS011;2720;52.396;10.064;2023-05-31T05:08:38;11.47;;;5.60;;
5393;SDS011;2720;52.396;10.064;2023-05-31T05:11:07;15.40;;;5.93;;
5393;SDS011;2720;52.396;10.064;2023-05-31T05:13:34;19.90;;;6.23;;
5393;SDS011;2720;52.396;10.064;2023-05-31T05:16:01;15.20;;;5.70;;
5393;SDS011;2720;52.396;10.064;2023-05-31T05:18:28;11.83;;;5.90;;
5393;SDS011;2720;52.396;10.064;2023-05-31T05:20:55;15.80;;;5.90;;
5393;SDS011;2720;52.396;10.064;2023-05-31T05:23:23;9.60;;;4.83;;
5393;SDS011;2720;52.396;10.064;2023-05-31T05:25:50;12.67;;;5.90;;
5393;SDS011;2720;52.396;10.064;2023-05-31T05:28:18;8.87;;;4.80;;
5393;SDS011;2720;52.396;10.064;2023-05-31T05:30:47;17.77;;;6.53;;
5393;SDS011;2720;52.396;10.064;2023-05-31T05:33:14;12.23;;;5.40;;
5393;SDS011;2720;52.396;10.064;2023-05-31T05:35:41;12.03;;;5.20;;
5393;SDS011;2720;52.396;10.064;2023-05-31T05:38:08;26.97;;;4.97;;
5393;SDS011;2720;52.396;10.064;2023-05-31T05:40:35;12.10;;;4.40;;
5393;SDS011;2720;52.396;10.064;2023-05-31T05:43:02;10.40;;;4.73;;
5393;SDS011;2720;52.396;10.064;2023-05-31T05:45:30;16.27;;;4.97;;
5393;SDS011;2720;52.396;10.064;2023-05-31T05:47:57;9.97;;;3.80;;
5393;SDS011;2720;52.396;10.064;2023-05-31T05:50:24;7.27;;;4.37;;
5393;SDS011;2720;52.396;10.064;2023-05-31T05:52:51;15.47;;;4.33;;
5393;SDS011;2720;52.396;10.064;2023-05-31T05:55:18;7.70;;;3.30;;
5393;SDS011;2720;52.396;10.064;2023-05-31T05:57:45;15.53;;;4.33;;
5393;SDS011;2720;52.396;10.064;2023-05-31T06:00:12;9.83;;;3.53;;
5393;SDS011;2720;52.396;10.064;2023-05-31T06:02:42;8.07;;;4.30;;
5393;SDS011;2720;52.396;10.064;2023-05-31T06:05:09;10.80;;;3.63;;
5393;SDS011;2720;52.396;10.064;2023-05-31T06:07:36;8.20;;;3.70;;
5393;SDS011;2720;52.396;10.064;2023-05-31T06:10:03;8.90;;;4.00;;
5393;SDS011;2720;52.396;10.064;2023-05-31T06:12:30;11.63;;;4.40;;
5393;SDS011;2720;52.396;10.064;2023-05-31T06:14:57;7.23;;;2.77;;
5393;SDS011;2720;52.396;10.064;2023-05-31T06:17:24;11.47;;;3.90;;
5393;SDS011;2720;52.396;10.064;2023-05-31T06:19:52;15.60;;;4.13;;
5393;SDS011;2720;52.396;10.064;2023-05-31T06:22:19;14.07;;;4.17;;
5393;SDS011;2720;52.396;10.064;2023-05-31T06:24:46;17.13;;;4.60;;
5393;SDS011;2720;52.396;10.064;2023-05-31T06:27:13;13.33;;;3.13;;
5393;SDS011;2720;52.396;10.064;2023-05-31T06:29:40;5.70;;;2.60;;
5393;SDS011;2720;52.396;10.064;2023-05-31T06:32:07;10.50;;;3.13;;
5393;SDS011;2720;52.396;10.064;2023-05-31T06:34:34;9.40;;;4.53;;
5393;SDS011;2720;52.396;10.064;2023-05-31T06:37:03;10.00;;;3.60;;
5393;SDS011;2720;52.396;10.064;2023-05-31T06:39:32;5.60;;;2.80;;
5393;SDS011;2720;52.396;10.064;2023-05-31T06:41:59;10.00;;;2.40;;
5393;SDS011;2720;52.396;10.064;2023-05-31T06:44:26;14.03;;;2.40;;
5393;SDS011;2720;52.396;10.064;2023-05-31T06:46:53;13.43;;;3.27;;
5393;SDS011;2720;52.396;10.064;2023-05-31T06:49:21;8.33;;;3.40;;
5393;SDS011;2720;52.396;10.064;2023-05-31T06:51:47;11.83;;;2.70;;
5393;SDS011;2720;52.396;10.064;2023-05-31T06:54:16;11.53;;;3.40;;
5393;SDS011;2720;52.396;10.064;2023-05-31T06:56:43;8.77;;;2.37;;
5393;SDS011;2720;52.396;10.064;2023-05-31T06:59:10;10.30;;;3.00;;
5393;SDS011;2720;52.396;10.064;2023-05-31T07:01:37;19.70;;;3.00;;
5393;SDS011;2720;52.396;10.064;2023-05-31T07:04:04;11.53;;;2.80;;
5393;SDS011;2720;52.396;10.064;2023-05-31T07:06:31;4.57;;;2.23;;
5393;SDS011;2720;52.396;10.064;2023-05-31T07:08:58;6.70;;;2.40;;
5393;SDS011;2720;52.396;10.064;2023-05-31T07:11:26;10.77;;;2.40;;
5393;SDS011;2720;52.396;10.064;2023-05-31T07:13:53;6.50;;;2.07;;
5393;SDS011;2720;52.396;10.064;2023-05-31T07:16:24;9.73;;;2.47;;
5393;SDS011;2720;52.396;10.064;2023-05-31T07:18:51;9.00;;;2.40;;
5393;SDS011;2720;52.396;10.064;2023-05-31T07:21:18;6.80;;;2.10;;
5393;SDS011;2720;52.396;10.064;2023-05-31T07:23:45;9.43;;;2.63;;
5393;SDS011;2720;52.396;10.064;2023-05-31T07:26:12;7.30;;;2.30;;
5393;SDS011;2720;52.396;10.064;2023-05-31T07:28:42;8.60;;;2.80;;
5393;SDS011;2720;52.396;10.064;2023-05-31T07:31:09;8.07;;;2.20;;
5393;SDS011;2720;52.396;10.064;2023-05-31T07:33:36;7.10;;;2.20;;
5393;SDS011;2720;52.396;10.064;2023-05-31T07:36:03;7.90;;;2.50;;
5393;SDS011;2720;52.396;10.064;2023-05-31T07:38:31;8.60;;;2.00;;
5393;SDS011;2720;52.396;10.064;2023-05-31T07:40:58;10.07;;;2.60;;
5393;SDS011;2720;52.396;10.064;2023-05-31T07:43:25;8.53;;;2.03;;
5393;SDS011;2720;52.396;10.064;2023-05-31T07:45:55;9.53;;;2.67;;
5393;SDS011;2720;52.396;10.064;2023-05-31T07:48:23;7.63;;;2.00;;
5393;SDS011;2720;52.396;10.064;2023-05-31T07:50:50;8.20;;;1.93;;
5393;SDS011;2720;52.396;10.064;2023-05-31T07:53:17;8.30;;;2.00;;
5393;SDS011;2720;52.396;10.064;2023-05-31T07:55:44;7.07;;;2.40;;
5393;SDS011;2720;52.396;10.064;2023-05-31T07:58:12;5.80;;;1.60;;
5393;SDS011;2720;52.396;10.064;2023-05-31T08:00:40;10.33;;;2.07;;
5393;SDS011;2720;52.396;10.064;2023-05-31T08:03:08;6.70;;;1.60;;
5393;SDS011;2720;52.396;10.064;2023-05-31T08:05:35;7.33;;;2.10;;
5393;SDS011;2720;52.396;10.064;2023-05-31T08:08:02;8.27;;;1.83;;
5393;SDS011;2720;52.396;10.064;2023-05-31T08:10:31;10.43;;;2.23;;
5393;SDS011;2720;52.396;10.064;2023-05-31T08:12:58;10.40;;;2.30;;
5393;SDS011;2720;52.396;10.064;2023-05-31T08:15:24;4.83;;;1.53;;
5393;SDS011;2720;52.396;10.064;2023-05-31T08:17:52;9.37;;;2.00;;
5393;SDS011;2720;52.396;10.064;2023-05-31T08:20:20;7.47;;;1.90;;
5393;SDS011;2720;52.396;10.064;2023-05-31T08:22:47;6.73;;;1.93;;
5393;SDS011;2720;52.396;10.064;2023-05-31T08:25:14;8.47;;;1.70;;
5393;SDS011;2720;52.396;10.064;2023-05-31T08:27:45;9.80;;;2.00;;
5393;SDS011;2720;52.396;10.064;2023-05-31T08:30:12;8.17;;;2.30;;
5393;SDS011;2720;52.396;10.064;2023-05-31T08:32:39;9.80;;;2.37;;
5393;SDS011;2720;52.396;10.064;2023-05-31T08:35:07;7.00;;;1.80;;
5393;SDS011;2720;52.396;10.064;2023-05-31T08:37:36;12.13;;;3.33;;
5393;SDS011;2720;52.396;10.064;2023-05-31T08:40:04;10.33;;;2.30;;
5393;SDS011;2720;52.396;10.064;2023-05-31T08:42:35;11.20;;;1.67;;
5393;SDS011;2720;52.396;10.064;2023-05-31T08:45:07;9.90;;;2.20;;
5393;SDS011;2720;52.396;10.064;2023-05-31T08:47:36;12.90;;;2.40;;
5393;SDS011;2720;52.396;10.064;2023-05-31T08:50:08;8.60;;;2.07;;
5393;SDS011;2720;52.396;10.064;2023-05-31T08:52:36;10.47;;;1.80;;
5393;SDS011;2720;52.396;10.064;2023-05-31T08:55:05;9.53;;;2.13;;
5393;SDS011;2720;52.396;10.064;2023-05-31T08:57:33;6.97;;;1.70;;
5393;SDS011;2720;52.396;10.064;2023-05-31T09:00:02;9.60;;;2.00;;
5393;SDS011;2720;52.396;10.064;2023-05-31T09:02:34;11.17;;;2.00;;
5393;SDS011;2720;52.396;10.064;2023-05-31T09:05:01;16.50;;;2.43;;
5393;SDS011;2720;52.396;10.064;2023-05-31T09:07:30;6.67;;;1.80;;
5393;SDS011;2720;52.396;10.064;2023-05-31T09:09:58;8.97;;;1.77;;
5393;SDS011;2720;52.396;10.064;2023-05-31T09:12:28;9.00;;;2.00;;
5393;SDS011;2720;52.396;10.064;2023-05-31T09:14:55;9.10;;;1.70;;
5393;SDS011;2720;52.396;10.064;2023-05-31T09:17:23;10.57;;;2.00;;
5393;SDS011;2720;52.396;10.064;2023-05-31T09:19:50;10.07;;;2.20;;
5393;SDS011;2720;52.396;10.064;2023-05-31T09:22:18;8.90;;;2.00;;
5393;SDS011;2720;52.396;10.064;2023-05-31T09:24:50;8.97;;;1.90;;
5393;SDS011;2720;52.396;10.064;2023-05-31T09:27:22;10.93;;;1.80;;
5393;SDS011;2720;52.396;10.064;2023-05-31T09:29:50;12.73;;;1.77;;
5393;SDS011;2720;52.396;10.064;2023-05-31T09:32:18;11.87;;;2.10;;
5393;SDS011;2720;52.396;10.064;2023-05-31T09:34:45;10.50;;;2.10;;
5393;SDS011;2720;52.396;10.064;2023-05-31T09:37:22;6.70;;;1.43;;
5393;SDS011;2720;52.396;10.064;2023-05-31T09:39:53;9.97;;;2.20;;
5393;SDS011;2720;52.396;10.064;2023-05-31T09:42:23;6.03;;;1.20;;
5393;SDS011;2720;52.396;10.064;2023-05-31T09:44:51;8.40;;;1.60;;
5393;SDS011;2720;52.396;10.064;2023-05-31T09:47:22;7.43;;;1.50;;
5393;SDS011;2720;52.396;10.064;2023-05-31T09:49:52;9.23;;;1.53;;
5393;SDS011;2720;52.396;10.064;2023-05-31T09:52:20;7.83;;;1.23;;
5393;SDS011;2720;52.396;10.064;2023-05-31T09:54:52;10.90;;;1.30;;
5393;SDS011;2720;52.396;10.064;2023-05-31T09:57:32;6.93;;;1.60;;
5393;SDS011;2720;52.396;10.064;2023-05-31T10:00:06;10.43;;;2.13;;
5393;SDS011;2720;52.396;10.064;2023-05-31T10:02:38;13.70;;;2.57;;
5393;SDS011;2720;52.396;10.064;2023-05-31T10:05:07;10.23;;;2.30;;
5393;SDS011;2720;52.396;10.064;2023-05-31T10:07:36;9.93;;;2.83;;
5393;SDS011;2720;52.396;10.064;2023-05-31T10:10:03;18.37;;;2.00;;
5393;SDS011;2720;52.396;10.064;2023-05-31T10:12:32;10.90;;;1.90;;
5393;SDS011;2720;52.396;10.064;2023-05-31T10:15:06;14.20;;;2.17;;
5393;SDS011;2720;52.396;10.064;2023-05-31T10:17:37;13.03;;;2.37;;
5393;SDS011;2720;52.396;10.064;2023-05-31T10:20:08;13.27;;;1.90;;
5393;SDS011;2720;52.396;10.064;2023-05-31T10:22:39;11.33;;;2.43;;
5393;SDS011;2720;52.396;10.064;2023-05-31T10:25:09;7.27;;;1.70;;
5393;SDS011;2720;52.396;10.064;2023-05-31T10:27:44;9.90;;;1.53;;
5393;SDS011;2720;52.396;10.064;2023-05-31T10:30:12;8.60;;;2.00;;
5393;SDS011;2720;52.396;10.064;2023-05-31T10:32:40;10.50;;;2.03;;
5393;SDS011;2720;52.396;10.064;2023-05-31T10:35:10;18.57;;;3.20;;
5393;SDS011;2720;52.396;10.064;2023-05-31T10:37:37;8.93;;;1.67;;
5393;SDS011;2720;52.396;10.064;2023-05-31T10:40:06;13.33;;;2.33;;
5393;SDS011;2720;52.396;10.064;2023-05-31T10:42:40;11.47;;;1.73;;
5393;SDS011;2720;52.396;10.064;2023-05-31T10:45:22;20.43;;;2.20;;
5393;SDS011;2720;52.396;10.064;2023-05-31T10:47:53;9.90;;;1.77;;
5393;SDS011;2720;52.396;10.064;2023-05-31T10:50:25;12.47;;;2.07;;
5393;SDS011;2720;52.396;10.064;2023-05-31T10:52:53;9.77;;;2.30;;
5393;SDS011;2720;52.396;10.064;2023-05-31T10:55:39;8.37;;;1.80;;
5393;SDS011;2720;52.396;10.064;2023-05-31T10:58:09;11.13;;;2.00;;
5393;SDS011;2720;52.396;10.064;2023-05-31T11:00:52;11.50;;;1.90;;
5393;SDS011;2720;52.396;10.064;2023-05-31T11:03:20;14.67;;;2.20;;
5393;SDS011;2720;52.396;10.064;2023-05-31T11:05:55;10.37;;;1.90;;
5393;SDS011;2720;52.396;10.064;2023-05-31T11:08:24;13.13;;;3.03;;
5393;SDS011;2720;52.396;10.064;2023-05-31T11:10:51;9.27;;;1.50;;
5393;SDS011;2720;52.396;10.064;2023-05-31T11:13:20;9.67;;;1.50;;
5393;SDS011;2720;52.396;10.064;2023-05-31T11:16:24;8.43;;;1.80;;
5393;SDS011;2720;52.396;10.064;2023-05-31T11:19:01;17.80;;;2.23;;
5393;SDS011;2720;52.396;10.064;2023-05-31T11:24:25;9.43;;;1.87;;
5393;SDS011;2720;52.396;10.064;2023-05-31T11:26:53;10.77;;;1.80;;
5393;SDS011;2720;52.396;10.064;2023-05-31T11:29:24;10.53;;;2.00;;
5393;SDS011;2720;52.396;10.064;2023-05-31T11:32:00;12.40;;;1.70;;
5393;SDS011;2720;52.396;10.064;2023-05-31T11:34:28;10.60;;;2.13;;
5393;SDS011;2720;52.396;10.064;2023-05-31T11:36:58;16.23;;;2.60;;
5393;SDS011;2720;52.396;10.064;2023-05-31T11:39:27;12.20;;;1.97;;
5393;SDS011;2720;52.396;10.064;2023-05-31T11:41:55;15.97;;;2.30;;
5393;SDS011;2720;52.396;10.064;2023-05-31T11:44:27;9.07;;;1.67;;
5393;SDS011;2720;52.396;10.064;2023-05-31T11:46:56;12.23;;;2.37;;
5393;SDS011;2720;52.396;10.064;2023-05-31T11:49:27;7.87;;;1.70;;
5393;SDS011;2720;52.396;10.064;2023-05-31T11:51:56;13.57;;;1.63;;
5393;SDS011;2720;52.396;10.064;2023-05-31T11:54:25;12.00;;;1.80;;
5393;SDS011;2720;52.396;10.064;2023-05-31T11:56:59;7.30;;;1.80;;
5393;SDS011;2720;52.396;10.064;2023-05-31T11:59:27;8.77;;;2.03;;
5393;SDS011;2720;52.396;10.064;2023-05-31T12:01:57;8.70;;;2.50;;
5393;SDS011;2720;52.396;10.064;2023-05-31T12:04:32;10.17;;;1.60;;
5393;SDS011;2720;52.396;10.064;2023-05-31T12:07:00;14.13;;;2.57;;
5393;SDS011;2720;52.396;10.064;2023-05-31T12:09:28;12.97;;;2.00;;
5393;SDS011;2720;52.396;10.064;2023-05-31T12:11:56;9.23;;;1.80;;
5393;SDS011;2720;52.396;10.064;2023-05-31T12:14:23;11.43;;;1.57;;
5393;SDS011;2720;52.396;10.064;2023-05-31T12:16:53;9.83;;;1.73;;
5393;SDS011;2720;52.396;10.064;2023-05-31T12:19:20;9.90;;;1.60;;
5393;SDS011;2720;52.396;10.064;2023-05-31T12:21:48;7.97;;;1.60;;
5393;SDS011;2720;52.396;10.064;2023-05-31T12:24:15;11.40;;;2.03;;
5393;SDS011;2720;52.396;10.064;2023-05-31T12:26:43;13.70;;;2.30;;
5393;SDS011;2720;52.396;10.064;2023-05-31T12:29:13;10.50;;;1.63;;
5393;SDS011;2720;52.396;10.064;2023-05-31T12:31:40;8.67;;;1.77;;
5393;SDS011;2720;52.396;10.064;2023-05-31T12:34:11;13.83;;;1.90;;
5393;SDS011;2720;52.396;10.064;2023-05-31T12:36:40;9.43;;;1.70;;
5393;SDS011;2720;52.396;10.064;2023-05-31T12:39:08;10.30;;;2.63;;
5393;SDS011;2720;52.396;10.064;2023-05-31T12:41:37;11.77;;;1.97;;
5393;SDS011;2720;52.396;10.064;2023-05-31T12:44:05;9.17;;;1.97;;
5393;SDS011;2720;52.396;10.064;2023-05-31T12:46:36;9.57;;;1.83;;
5393;SDS011;2720;52.396;10.064;2023-05-31T12:49:19;9.00;;;2.00;;
5393;SDS011;2720;52.396;10.064;2023-05-31T12:51:47;9.07;;;2.10;;
5393;SDS011;2720;52.396;10.064;2023-05-31T12:54:16;14.57;;;1.77;;
5393;SDS011;2720;52.396;10.064;2023-05-31T12:56:43;8.10;;;1.97;;
5393;SDS011;2720;52.396;10.064;2023-05-31T12:59:10;11.20;;;2.47;;
5393;SDS011;2720;52.396;10.064;2023-05-31T13:01:37;9.70;;;1.83;;
5393;SDS011;2720;52.396;10.064;2023-05-31T13:04:05;14.13;;;1.73;;
5393;SDS011;2720;52.396;10.064;2023-05-31T13:06:34;7.80;;;1.60;;
5393;SDS011;2720;52.396;10.064;2023-05-31T13:09:01;10.97;;;1.97;;
5393;SDS011;2720;52.396;10.064;2023-05-31T13:11:31;9.00;;;1.97;;
5393;SDS011;2720;52.396;10.064;2023-05-31T13:14:00;13.43;;;1.53;;
5393;SDS011;2720;52.396;10.064;2023-05-31T13:16:28;15.07;;;2.07;;
5393;SDS011;2720;52.396;10.064;2023-05-31T13:18:55;8.93;;;1.87;;
5393;SDS011;2720;52.396;10.064;2023-05-31T13:21:23;7.87;;;2.27;;
5393;SDS011;2720;52.396;10.064;2023-05-31T13:23:51;10.07;;;1.90;;
5393;SDS011;2720;52.396;10.064;2023-05-31T13:26:19;11.53;;;2.17;;
5393;SDS011;2720;52.396;10.064;2023-05-31T13:28:47;12.63;;;2.10;;
5393;SDS011;2720;52.396;10.064;2023-05-31T13:31:14;14.50;;;2.20;;
5393;SDS011;2720;52.396;10.064;2023-05-31T13:33:42;13.20;;;2.53;;
5393;SDS011;2720;52.396;10.064;2023-05-31T13:36:09;8.57;;;1.93;;
5393;SDS011;2720;52.396;10.064;2023-05-31T13:38:36;10.40;;;1.70;;
5393;SDS011;2720;52.396;10.064;2023-05-31T13:41:04;11.43;;;2.17;;
5393;SDS011;2720;52.396;10.064;2023-05-31T13:43:31;12.67;;;2.30;;
5393;SDS011;2720;52.396;10.064;2023-05-31T13:45:59;13.07;;;4.03;;
5393;SDS011;2720;52.396;10.064;2023-05-31T13:48:26;10.53;;;1.97;;
5393;SDS011;2720;52.396;10.064;2023-05-31T13:50:53;10.90;;;1.80;;
5393;SDS011;2720;52.396;10.064;2023-05-31T13:53:20;11.23;;;1.90;;
5393;SDS011;2720;52.396;10.064;2023-05-31T13:55:47;11.17;;;1.67;;
5393;SDS011;2720;52.396;10.064;2023-05-31T13:58:16;13.10;;;2.07;;
5393;SDS011;2720;52.396;10.064;2023-05-31T14:00:43;12.63;;;2.10;;
5393;SDS011;2720;52.396;10.064;2023-05-31T14:03:10;11.87;;;1.57;;
5393;SDS011;2720;52.396;10.064;2023-05-31T14:05:37;9.10;;;2.13;;
5393;SDS011;2720;52.396;10.064;2023-05-31T14:08:04;19.20;;;2.17;;
5393;SDS011;2720;52.396;10.064;2023-05-31T14:10:32;11.07;;;1.90;;
5393;SDS011;2720;52.396;10.064;2023-05-31T14:12:59;11.13;;;1.93;;
5393;SDS011;2720;52.396;10.064;2023-05-31T14:15:27;11.67;;;1.73;;
5393;SDS011;2720;52.396;10.064;2023-05-31T14:17:54;10.53;;;1.77;;
5393;SDS011;2720;52.396;10.064;2023-05-31T14:20:21;11.60;;;2.37;;
5393;SDS011;2720;52.396;10.064;2023-05-31T14:22:48;9.47;;;1.63;;
5393;SDS011;2720;52.396;10.064;2023-05-31T14:25:15;10.67;;;1.83;;
5393;SDS011;2720;52.396;10.064;2023-05-31T14:27:42;15.23;;;1.90;;
5393;SDS011;2720;52.396;10.064;2023-05-31T14:30:09;11.30;;;2.10;;
5393;SDS011;2720;52.396;10.064;2023-05-31T14:32:38;15.03;;;3.13;;
5393;SDS011;2720;52.396;10.064;2023-05-31T14:35:05;17.37;;;2.33;;
5393;SDS011;2720;52.396;10.064;2023-05-31T14:37:35;13.83;;;2.37;;
5393;SDS011;2720;52.396;10.064;2023-05-31T14:40:02;11.50;;;2.60;;
5393;SDS011;2720;52.396;10.064;2023-05-31T14:42:30;12.87;;;2.33;;
5393;SDS011;2720;52.396;10.064;2023-05-31T14:44:57;11.43;;;1.90;;
5393;SDS011;2720;52.396;10.064;2023-05-31T14:47:28;11.80;;;2.30;;
5393;SDS011;2720;52.396;10.064;2023-05-31T14:49:56;11.30;;;2.00;;
5393;SDS011;2720;52.396;10.064;2023-05-31T14:52:23;9.53;;;2.47;;
5393;SDS011;2720;52.396;10.064;2023-05-31T14:54:50;10.00;;;2.33;;
5393;SDS011;2720;52.396;10.064;2023-05-31T14:57:17;13.87;;;2.70;;
5393;SDS011;2720;52.396;10.064;2023-05-31T14:59:44;9.37;;;2.10;;
5393;SDS011;2720;52.396;10.064;2023-05-31T15:02:11;10.00;;;2.50;;
5393;SDS011;2720;52.396;10.064;2023-05-31T15:04:38;11.13;;;2.17;;